Terminal Aerodrome Forecast
Issued by NWS

Home | Current Version | Previous Version | Graphics & Text | Print | Product List | Glossary On
Versions: 1 2 3 4 5 6 7 8 9 10 11 12 13 14 15 16 17 18 19 20 21 22 23 24
000
FTUS43 KGRB 281133
TAFRHI
TAF
KRHI 281133Z 2812/2912 28002KT P6SM SCT007 OVC012
      TEMPO 2812/2814 4SM BR BKN007
     FM281400 28003KT P6SM BKN008
     FM281600 25003KT P6SM SCT024
     FM281900 22004KT P6SM SCT045
     FM290000 17002KT P6SM FEW200
     FM290800 17003KT 3SM BR SCT090=

USA.gov is the U.S. government's official web portal to all federal, state and local government web resources and services.